sensor_id;sensor_type;location;lat;lon;timestamp;temperature;humidity
48264;DHT22;34086;51.076;13.722;2023-11-22T00:00:13;1.60;99.90
48264;DHT22;34086;51.076;13.722;2023-11-22T00:01:14;1.60;99.90
48264;DHT22;34086;51.076;13.722;2023-11-22T00:02:14;1.60;99.90
48264;DHT22;34086;51.076;13.722;2023-11-22T00:03:15;1.60;99.90
48264;DHT22;34086;51.076;13.722;2023-11-22T00:04:15;1.60;99.90
48264;DHT22;34086;51.076;13.722;2023-11-22T00:05:18;1.60;99.90
48264;DHT22;34086;51.076;13.722;2023-11-22T00:06:18;1.60;99.90
48264;DHT22;34086;51.076;13.722;2023-11-22T00:07:22;1.60;99.90
48264;DHT22;34086;51.076;13.722;2023-11-22T00:08:23;1.60;99.90
48264;DHT22;34086;51.076;13.722;2023-11-22T00:09:23;1.60;99.90
48264;DHT22;34086;51.076;13.722;2023-11-22T00:10:24;1.60;99.90
48264;DHT22;34086;51.076;13.722;2023-11-22T00:11:24;1.60;99.90
48264;DHT22;34086;51.076;13.722;2023-11-22T00:12:25;1.60;99.90
48264;DHT22;34086;51.076;13.722;2023-11-22T00:13:26;1.60;99.90
48264;DHT22;34086;51.076;13.722;2023-11-22T00:14:26;1.50;99.90
48264;DHT22;34086;51.076;13.722;2023-11-22T00:15:27;1.50;99.90
48264;DHT22;34086;51.076;13.722;2023-11-22T00:16:28;1.50;99.90
48264;DHT22;34086;51.076;13.722;2023-11-22T00:17:28;1.50;99.90
48264;DHT22;34086;51.076;13.722;2023-11-22T00:18:29;1.60;99.90
48264;DHT22;34086;51.076;13.722;2023-11-22T00:19:31;1.60;99.90
48264;DHT22;34086;51.076;13.722;2023-11-22T00:20:31;1.60;99.90
48264;DHT22;34086;51.076;13.722;2023-11-22T00:21:33;1.60;99.90
48264;DHT22;34086;51.076;13.722;2023-11-22T00:22:35;1.60;99.90
48264;DHT22;34086;51.076;13.722;2023-11-22T00:23:35;1.70;99.90
48264;DHT22;34086;51.076;13.722;2023-11-22T00:24:36;1.70;99.90
48264;DHT22;34086;51.076;13.722;2023-11-22T00:25:36;1.60;99.90
48264;DHT22;34086;51.076;13.722;2023-11-22T00:26:37;1.60;99.90
48264;DHT22;34086;51.076;13.722;2023-11-22T00:27:38;1.60;99.90
48264;DHT22;34086;51.076;13.722;2023-11-22T00:28:39;1.70;99.90
48264;DHT22;34086;51.076;13.722;2023-11-22T00:29:39;1.70;99.90
48264;DHT22;34086;51.076;13.722;2023-11-22T00:30:40;1.70;99.90
48264;DHT22;34086;51.076;13.722;2023-11-22T00:31:41;1.70;99.90
48264;DHT22;34086;51.076;13.722;2023-11-22T00:32:41;1.80;99.90
48264;DHT22;34086;51.076;13.722;2023-11-22T00:33:42;1.80;99.90
48264;DHT22;34086;51.076;13.722;2023-11-22T00:34:42;1.80;99.90
48264;DHT22;34086;51.076;13.722;2023-11-22T00:35:43;1.80;99.90
48264;DHT22;34086;51.076;13.722;2023-11-22T00:36:44;1.70;99.90
48264;DHT22;34086;51.076;13.722;2023-11-22T00:37:44;1.70;99.90
48264;DHT22;34086;51.076;13.722;2023-11-22T00:38:45;1.70;99.90
48264;DHT22;34086;51.076;13.722;2023-11-22T00:39:45;1.80;99.90
48264;DHT22;34086;51.076;13.722;2023-11-22T00:40:46;1.70;99.90
48264;DHT22;34086;51.076;13.722;2023-11-22T00:41:47;1.70;99.90
48264;DHT22;34086;51.076;13.722;2023-11-22T00:42:47;1.70;99.90
48264;DHT22;34086;51.076;13.722;2023-11-22T00:43:48;1.70;99.90
48264;DHT22;34086;51.076;13.722;2023-11-22T00:44:48;1.70;99.90
48264;DHT22;34086;51.076;13.722;2023-11-22T00:45:50;1.60;99.90
48264;DHT22;34086;51.076;13.722;2023-11-22T00:46:51;1.60;99.90
48264;DHT22;34086;51.076;13.722;2023-11-22T00:47:51;1.50;99.90
48264;DHT22;34086;51.076;13.722;2023-11-22T00:48:52;1.60;99.90
48264;DHT22;34086;51.076;13.722;2023-11-22T00:49:53;1.60;99.90
48264;DHT22;34086;51.076;13.722;2023-11-22T00:50:54;1.60;99.90
48264;DHT22;34086;51.076;13.722;2023-11-22T00:51:54;1.60;99.90
48264;DHT22;34086;51.076;13.722;2023-11-22T00:52:55;1.60;99.90
48264;DHT22;34086;51.076;13.722;2023-11-22T00:53:56;1.60;99.90
48264;DHT22;34086;51.076;13.722;2023-11-22T00:54:57;1.60;99.90
48264;DHT22;34086;51.076;13.722;2023-11-22T00:55:58;1.50;99.90
48264;DHT22;34086;51.076;13.722;2023-11-22T00:56:58;1.60;99.90
48264;DHT22;34086;51.076;13.722;2023-11-22T00:57:59;1.70;99.90
48264;DHT22;34086;51.076;13.722;2023-11-22T00:59:04;1.60;99.90
48264;DHT22;34086;51.076;13.722;2023-11-22T01:00:05;1.70;99.90
48264;DHT22;34086;51.076;13.722;2023-11-22T01:01:09;1.70;99.90
48264;DHT22;34086;51.076;13.722;2023-11-22T01:02:10;1.70;99.90
48264;DHT22;34086;51.076;13.722;2023-11-22T01:03:10;1.70;99.90
48264;DHT22;34086;51.076;13.722;2023-11-22T01:04:12;1.80;99.90
48264;DHT22;34086;51.076;13.722;2023-11-22T01:05:12;1.80;99.90
48264;DHT22;34086;51.076;13.722;2023-11-22T01:06:13;1.80;99.90
48264;DHT22;34086;51.076;13.722;2023-11-22T01:07:14;1.80;99.90
48264;DHT22;34086;51.076;13.722;2023-11-22T01:08:15;1.80;99.90
48264;DHT22;34086;51.076;13.722;2023-11-22T01:09:16;1.70;99.90
48264;DHT22;34086;51.076;13.722;2023-11-22T01:10:17;1.70;99.90
48264;DHT22;34086;51.076;13.722;2023-11-22T01:11:17;1.80;99.90
48264;DHT22;34086;51.076;13.722;2023-11-22T01:12:18;1.70;99.90
48264;DHT22;34086;51.076;13.722;2023-11-22T01:13:18;1.80;99.90
48264;DHT22;34086;51.076;13.722;2023-11-22T01:14:19;1.70;99.90
48264;DHT22;34086;51.076;13.722;2023-11-22T01:15:19;1.70;99.90
48264;DHT22;34086;51.076;13.722;2023-11-22T01:16:20;1.60;99.90
48264;DHT22;34086;51.076;13.722;2023-11-22T01:17:21;1.60;99.90
48264;DHT22;34086;51.076;13.722;2023-11-22T01:18:22;1.60;99.90
48264;DHT22;34086;51.076;13.722;2023-11-22T01:19:23;1.70;99.90
48264;DHT22;34086;51.076;13.722;2023-11-22T01:20:23;1.70;99.90
48264;DHT22;34086;51.076;13.722;2023-11-22T01:21:24;1.70;99.90
48264;DHT22;34086;51.076;13.722;2023-11-22T01:22:25;1.70;99.90
48264;DHT22;34086;51.076;13.722;2023-11-22T01:23:26;1.70;99.90
48264;DHT22;34086;51.076;13.722;2023-11-22T01:24:28;1.70;99.90
48264;DHT22;34086;51.076;13.722;2023-11-22T01:25:29;1.70;99.90
48264;DHT22;34086;51.076;13.722;2023-11-22T01:26:30;1.70;99.90
48264;DHT22;34086;51.076;13.722;2023-11-22T01:27:31;1.70;99.90
48264;DHT22;34086;51.076;13.722;2023-11-22T01:28:31;1.70;99.90
48264;DHT22;34086;51.076;13.722;2023-11-22T01:29:34;1.70;99.90
48264;DHT22;34086;51.076;13.722;2023-11-22T01:30:35;1.70;99.90
48264;DHT22;34086;51.076;13.722;2023-11-22T01:31:36;1.70;99.90
48264;DHT22;34086;51.076;13.722;2023-11-22T01:32:36;1.70;99.90
48264;DHT22;34086;51.076;13.722;2023-11-22T01:33:37;1.60;99.90
48264;DHT22;34086;51.076;13.722;2023-11-22T01:34:38;1.60;99.90
48264;DHT22;34086;51.076;13.722;2023-11-22T01:35:38;1.60;99.90
48264;DHT22;34086;51.076;13.722;2023-11-22T01:36:42;1.60;99.90
48264;DHT22;34086;51.076;13.722;2023-11-22T01:37:44;1.70;99.90
48264;DHT22;34086;51.076;13.722;2023-11-22T01:38:44;1.70;99.90
48264;DHT22;34086;51.076;13.722;2023-11-22T01:39:46;1.60;99.90
48264;DHT22;34086;51.076;13.722;2023-11-22T01:40:47;1.60;99.90
48264;DHT22;34086;51.076;13.722;2023-11-22T01:41:48;1.70;99.90
48264;DHT22;34086;51.076;13.722;2023-11-22T01:42:50;1.60;99.90
48264;DHT22;34086;51.076;13.722;2023-11-22T01:43:50;1.50;99.90
48264;DHT22;34086;51.076;13.722;2023-11-22T01:44:51;1.50;99.90
48264;DHT22;34086;51.076;13.722;2023-11-22T01:45:55;1.50;99.90
48264;DHT22;34086;51.076;13.722;2023-11-22T01:46:56;1.50;99.90
48264;DHT22;34086;51.076;13.722;2023-11-22T01:47:57;1.60;99.90
48264;DHT22;34086;51.076;13.722;2023-11-22T01:48:57;1.70;99.90
48264;DHT22;34086;51.076;13.722;2023-11-22T01:49:58;1.60;99.90
48264;DHT22;34086;51.076;13.722;2023-11-22T01:50:58;1.60;99.90
48264;DHT22;34086;51.076;13.722;2023-11-22T01:51:59;1.60;99.90
48264;DHT22;34086;51.076;13.722;2023-11-22T01:53:02;1.60;99.90
48264;DHT22;34086;51.076;13.722;2023-11-22T01:54:04;1.60;99.90
48264;DHT22;34086;51.076;13.722;2023-11-22T01:55:06;1.70;99.90
48264;DHT22;34086;51.076;13.722;2023-11-22T01:56:09;1.70;99.90
48264;DHT22;34086;51.076;13.722;2023-11-22T01:57:10;1.70;99.90
48264;DHT22;34086;51.076;13.722;2023-11-22T01:58:11;1.60;99.90
48264;DHT22;34086;51.076;13.722;2023-11-22T01:59:13;1.60;99.90
48264;DHT22;34086;51.076;13.722;2023-11-22T02:00:14;1.60;99.90
48264;DHT22;34086;51.076;13.722;2023-11-22T02:01:15;1.60;99.90
48264;DHT22;34086;51.076;13.722;2023-11-22T02:02:16;1.60;99.90
48264;DHT22;34086;51.076;13.722;2023-11-22T02:03:17;1.60;99.90
48264;DHT22;34086;51.076;13.722;2023-11-22T02:04:18;1.60;99.90
48264;DHT22;34086;51.076;13.722;2023-11-22T02:05:18;1.60;99.90
48264;DHT22;34086;51.076;13.722;2023-11-22T02:06:19;1.60;99.90
48264;DHT22;34086;51.076;13.722;2023-11-22T02:07:22;1.60;99.90
48264;DHT22;34086;51.076;13.722;2023-11-22T02:08:23;1.60;99.90
48264;DHT22;34086;51.076;13.722;2023-11-22T02:09:24;1.50;99.90
48264;DHT22;34086;51.076;13.722;2023-11-22T02:10:25;1.50;99.90
48264;DHT22;34086;51.076;13.722;2023-11-22T02:11:26;1.60;99.90
48264;DHT22;34086;51.076;13.722;2023-11-22T02:12:28;1.60;99.90
48264;DHT22;34086;51.076;13.722;2023-11-22T02:13:29;1.60;99.90
48264;DHT22;34086;51.076;13.722;2023-11-22T02:14:29;1.60;99.90
48264;DHT22;34086;51.076;13.722;2023-11-22T02:15:31;1.60;99.90
48264;DHT22;34086;51.076;13.722;2023-11-22T02:16:32;1.50;99.90
48264;DHT22;34086;51.076;13.722;2023-11-22T02:17:33;1.50;99.90
48264;DHT22;34086;51.076;13.722;2023-11-22T02:18:34;1.50;99.90
48264;DHT22;34086;51.076;13.722;2023-11-22T02:19:37;1.50;99.90
48264;DHT22;34086;51.076;13.722;2023-11-22T02:20:38;1.50;99.90
48264;DHT22;34086;51.076;13.722;2023-11-22T02:21:40;1.60;99.90
48264;DHT22;34086;51.076;13.722;2023-11-22T02:22:45;1.50;99.90
48264;DHT22;34086;51.076;13.722;2023-11-22T02:23:46;1.50;99.90
48264;DHT22;34086;51.076;13.722;2023-11-22T02:24:47;1.60;99.90
48264;DHT22;34086;51.076;13.722;2023-11-22T02:25:47;1.60;99.90
48264;DHT22;34086;51.076;13.722;2023-11-22T02:26:48;1.70;99.90
48264;DHT22;34086;51.076;13.722;2023-11-22T02:27:49;1.70;99.90
48264;DHT22;34086;51.076;13.722;2023-11-22T02:28:49;1.80;99.90
48264;DHT22;34086;51.076;13.722;2023-11-22T02:29:50;1.80;99.90
48264;DHT22;34086;51.076;13.722;2023-11-22T02:30:51;1.80;99.90
48264;DHT22;34086;51.076;13.722;2023-11-22T02:31:52;1.70;99.90
48264;DHT22;34086;51.076;13.722;2023-11-22T02:32:53;1.70;99.90
48264;DHT22;34086;51.076;13.722;2023-11-22T02:33:54;1.70;99.90
48264;DHT22;34086;51.076;13.722;2023-11-22T02:34:55;1.70;99.90
48264;DHT22;34086;51.076;13.722;2023-11-22T02:35:56;1.70;99.90
48264;DHT22;34086;51.076;13.722;2023-11-22T02:36:57;1.80;99.90
48264;DHT22;34086;51.076;13.722;2023-11-22T02:37:59;1.80;99.90
48264;DHT22;34086;51.076;13.722;2023-11-22T02:39:00;1.80;99.90
48264;DHT22;34086;51.076;13.722;2023-11-22T02:40:09;1.70;99.90
48264;DHT22;34086;51.076;13.722;2023-11-22T02:41:14;1.70;99.90
48264;DHT22;34086;51.076;13.722;2023-11-22T02:42:15;1.70;99.90
48264;DHT22;34086;51.076;13.722;2023-11-22T02:43:16;1.70;99.90
48264;DHT22;34086;51.076;13.722;2023-11-22T02:44:16;1.70;99.90
48264;DHT22;34086;51.076;13.722;2023-11-22T02:45:18;1.70;99.90
48264;DHT22;34086;51.076;13.722;2023-11-22T02:46:19;1.70;99.90
48264;DHT22;34086;51.076;13.722;2023-11-22T02:47:20;1.60;99.90
48264;DHT22;34086;51.076;13.722;2023-11-22T02:48:20;1.70;99.90
48264;DHT22;34086;51.076;13.722;2023-11-22T02:49:21;1.60;99.90
48264;DHT22;34086;51.076;13.722;2023-11-22T02:50:22;1.60;99.90
48264;DHT22;34086;51.076;13.722;2023-11-22T02:51:22;1.60;99.90
48264;DHT22;34086;51.076;13.722;2023-11-22T02:52:23;1.60;99.90
48264;DHT22;34086;51.076;13.722;2023-11-22T02:53:26;1.60;99.90
48264;DHT22;34086;51.076;13.722;2023-11-22T02:54:28;1.60;99.90
48264;DHT22;34086;51.076;13.722;2023-11-22T02:55:29;1.60;99.90
48264;DHT22;34086;51.076;13.722;2023-11-22T02:56:29;1.60;99.90
48264;DHT22;34086;51.076;13.722;2023-11-22T02:57:31;1.70;99.90
48264;DHT22;34086;51.076;13.722;2023-11-22T02:58:31;1.70;99.90
48264;DHT22;34086;51.076;13.722;2023-11-22T02:59:32;1.70;99.90
48264;DHT22;34086;51.076;13.722;2023-11-22T03:00:32;1.70;99.90
48264;DHT22;34086;51.076;13.722;2023-11-22T03:01:34;1.70;99.90
48264;DHT22;34086;51.076;13.722;2023-11-22T03:02:35;1.70;99.90
48264;DHT22;34086;51.076;13.722;2023-11-22T03:03:37;1.70;99.90
48264;DHT22;34086;51.076;13.722;2023-11-22T03:04:38;1.70;99.90
48264;DHT22;34086;51.076;13.722;2023-11-22T03:05:39;1.70;99.90
48264;DHT22;34086;51.076;13.722;2023-11-22T03:06:40;1.70;99.90
48264;DHT22;34086;51.076;13.722;2023-11-22T03:07:43;1.70;99.90
48264;DHT22;34086;51.076;13.722;2023-11-22T03:08:44;1.70;99.90
48264;DHT22;34086;51.076;13.722;2023-11-22T03:09:44;1.70;99.90
48264;DHT22;34086;51.076;13.722;2023-11-22T03:10:46;1.70;99.90
48264;DHT22;34086;51.076;13.722;2023-11-22T03:11:47;1.70;99.90
48264;DHT22;34086;51.076;13.722;2023-11-22T03:12:47;1.70;99.90
48264;DHT22;34086;51.076;13.722;2023-11-22T03:13:48;1.80;99.90
48264;DHT22;34086;51.076;13.722;2023-11-22T03:14:50;1.80;99.90
48264;DHT22;34086;51.076;13.722;2023-11-22T03:15:50;1.70;99.90
48264;DHT22;34086;51.076;13.722;2023-11-22T03:16:51;1.80;99.90
48264;DHT22;34086;51.076;13.722;2023-11-22T03:17:52;1.80;99.90
48264;DHT22;34086;51.076;13.722;2023-11-22T03:18:53;1.80;99.90
48264;DHT22;34086;51.076;13.722;2023-11-22T03:19:55;1.80;99.90
48264;DHT22;34086;51.076;13.722;2023-11-22T03:20:59;1.70;99.90
48264;DHT22;34086;51.076;13.722;2023-11-22T03:22:01;1.70;99.90
48264;DHT22;34086;51.076;13.722;2023-11-22T03:23:04;1.70;99.90
48264;DHT22;34086;51.076;13.722;2023-11-22T03:24:05;1.70;99.90
48264;DHT22;34086;51.076;13.722;2023-11-22T03:25:07;1.70;99.90
48264;DHT22;34086;51.076;13.722;2023-11-22T03:26:10;1.70;99.90
48264;DHT22;34086;51.076;13.722;2023-11-22T03:27:10;1.70;99.90
48264;DHT22;34086;51.076;13.722;2023-11-22T03:28:11;1.70;99.90
48264;DHT22;34086;51.076;13.722;2023-11-22T03:29:14;1.80;99.90
48264;DHT22;34086;51.076;13.722;2023-11-22T03:30:17;1.80;99.90
48264;DHT22;34086;51.076;13.722;2023-11-22T03:31:17;1.80;99.90
48264;DHT22;34086;51.076;13.722;2023-11-22T03:32:18;1.80;99.90
48264;DHT22;34086;51.076;13.722;2023-11-22T03:33:19;1.70;99.90
48264;DHT22;34086;51.076;13.722;2023-11-22T03:34:20;1.70;99.90
48264;DHT22;34086;51.076;13.722;2023-11-22T03:35:21;1.70;99.90
48264;DHT22;34086;51.076;13.722;2023-11-22T03:36:22;1.70;99.90
48264;DHT22;34086;51.076;13.722;2023-11-22T03:37:23;1.70;99.90
48264;DHT22;34086;51.076;13.722;2023-11-22T03:38:25;1.70;99.90
48264;DHT22;34086;51.076;13.722;2023-11-22T03:39:25;1.70;99.90
48264;DHT22;34086;51.076;13.722;2023-11-22T03:40:27;1.80;99.90
48264;DHT22;34086;51.076;13.722;2023-11-22T03:41:27;1.80;99.90
48264;DHT22;34086;51.076;13.722;2023-11-22T03:42:28;1.70;99.90
48264;DHT22;34086;51.076;13.722;2023-11-22T03:43:28;1.70;99.90
48264;DHT22;34086;51.076;13.722;2023-11-22T03:44:29;1.70;99.90
48264;DHT22;34086;51.076;13.722;2023-11-22T03:45:30;1.70;99.90
48264;DHT22;34086;51.076;13.722;2023-11-22T03:46:31;1.60;99.90
48264;DHT22;34086;51.076;13.722;2023-11-22T03:47:32;1.70;99.90
48264;DHT22;34086;51.076;13.722;2023-11-22T03:48:33;1.70;99.90
48264;DHT22;34086;51.076;13.722;2023-11-22T03:49:34;1.70;99.90
48264;DHT22;34086;51.076;13.722;2023-11-22T03:50:35;1.60;99.90
48264;DHT22;34086;51.076;13.722;2023-11-22T03:51:38;1.60;99.90
48264;DHT22;34086;51.076;13.722;2023-11-22T03:52:39;1.50;99.90
48264;DHT22;34086;51.076;13.722;2023-11-22T03:53:39;1.50;99.90
48264;DHT22;34086;51.076;13.722;2023-11-22T03:54:40;1.50;99.90
48264;DHT22;34086;51.076;13.722;2023-11-22T03:55:41;1.50;99.90
48264;DHT22;34086;51.076;13.722;2023-11-22T03:56:41;1.50;99.90
48264;DHT22;34086;51.076;13.722;2023-11-22T03:57:42;1.50;99.90
48264;DHT22;34086;51.076;13.722;2023-11-22T03:58:42;1.60;99.90
48264;DHT22;34086;51.076;13.722;2023-11-22T03:59:44;1.50;99.90
48264;DHT22;34086;51.076;13.722;2023-11-22T04:00:45;1.50;99.90
48264;DHT22;34086;51.076;13.722;2023-11-22T04:01:45;1.40;99.90
48264;DHT22;34086;51.076;13.722;2023-11-22T04:02:46;1.40;99.90
48264;DHT22;34086;51.076;13.722;2023-11-22T04:03:47;1.40;99.90
48264;DHT22;34086;51.076;13.722;2023-11-22T04:04:51;1.50;99.90
48264;DHT22;34086;51.076;13.722;2023-11-22T04:05:52;1.50;99.90
48264;DHT22;34086;51.076;13.722;2023-11-22T04:06:52;1.60;99.90
48264;DHT22;34086;51.076;13.722;2023-11-22T04:07:53;1.60;99.90
48264;DHT22;34086;51.076;13.722;2023-11-22T04:08:55;1.60;99.90
48264;DHT22;34086;51.076;13.722;2023-11-22T04:09:55;1.70;99.90
48264;DHT22;34086;51.076;13.722;2023-11-22T04:10:56;1.70;99.90
48264;DHT22;34086;51.076;13.722;2023-11-22T04:11:56;1.70;99.90
48264;DHT22;34086;51.076;13.722;2023-11-22T04:12:57;1.60;99.90
48264;DHT22;34086;51.076;13.722;2023-11-22T04:13:58;1.60;99.90
48264;DHT22;34086;51.076;13.722;2023-11-22T04:14:59;1.60;99.90
48264;DHT22;34086;51.076;13.722;2023-11-22T04:15:59;1.60;99.90
48264;DHT22;34086;51.076;13.722;2023-11-22T04:17:00;1.60;99.90
48264;DHT22;34086;51.076;13.722;2023-11-22T04:18:00;1.60;99.90
48264;DHT22;34086;51.076;13.722;2023-11-22T04:19:01;1.50;99.90
48264;DHT22;34086;51.076;13.722;2023-11-22T04:20:01;1.50;99.90
48264;DHT22;34086;51.076;13.722;2023-11-22T04:21:02;1.40;99.90
48264;DHT22;34086;51.076;13.722;2023-11-22T04:22:05;1.40;99.90
48264;DHT22;34086;51.076;13.722;2023-11-22T04:23:05;1.40;99.90
48264;DHT22;34086;51.076;13.722;2023-11-22T04:24:07;1.40;99.90
48264;DHT22;34086;51.076;13.722;2023-11-22T04:25:07;1.40;99.90
48264;DHT22;34086;51.076;13.722;2023-11-22T04:26:09;1.40;99.90
48264;DHT22;34086;51.076;13.722;2023-11-22T04:27:09;1.40;99.90
48264;DHT22;34086;51.076;13.722;2023-11-22T04:28:10;1.40;99.90
48264;DHT22;34086;51.076;13.722;2023-11-22T04:29:10;1.40;99.90
48264;DHT22;34086;51.076;13.722;2023-11-22T04:30:11;1.50;99.90
48264;DHT22;34086;51.076;13.722;2023-11-22T04:31:17;1.50;99.90
48264;DHT22;34086;51.076;13.722;2023-11-22T04:32:18;1.40;99.90
48264;DHT22;34086;51.076;13.722;2023-11-22T04:33:19;1.40;99.90
48264;DHT22;34086;51.076;13.722;2023-11-22T04:34:19;1.30;99.90
48264;DHT22;34086;51.076;13.722;2023-11-22T04:35:20;1.20;99.90
48264;DHT22;34086;51.076;13.722;2023-11-22T04:36:21;1.20;99.90
48264;DHT22;34086;51.076;13.722;2023-11-22T04:37:21;1.20;99.90
48264;DHT22;34086;51.076;13.722;2023-11-22T04:38:26;1.20;99.90
48264;DHT22;34086;51.076;13.722;2023-11-22T04:39:28;1.20;99.90
48264;DHT22;34086;51.076;13.722;2023-11-22T04:40:28;1.20;99.90
48264;DHT22;34086;51.076;13.722;2023-11-22T04:41:29;1.10;99.90
48264;DHT22;34086;51.076;13.722;2023-11-22T04:42:30;1.20;99.90
48264;DHT22;34086;51.076;13.722;2023-11-22T04:43:30;1.20;99.90
48264;DHT22;34086;51.076;13.722;2023-11-22T04:44:31;1.20;99.90
48264;DHT22;34086;51.076;13.722;2023-11-22T04:45:32;1.20;99.90
48264;DHT22;34086;51.076;13.722;2023-11-22T04:46:33;1.20;99.90
48264;DHT22;34086;51.076;13.722;2023-11-22T04:47:33;1.20;99.90
48264;DHT22;34086;51.076;13.722;2023-11-22T04:48:34;1.30;99.90
48264;DHT22;34086;51.076;13.722;2023-11-22T04:49:34;1.30;99.90
48264;DHT22;34086;51.076;13.722;2023-11-22T04:50:35;1.40;99.90
48264;DHT22;34086;51.076;13.722;2023-11-22T04:51:36;1.40;99.90
48264;DHT22;34086;51.076;13.722;2023-11-22T04:52:37;1.40;99.90
48264;DHT22;34086;51.076;13.722;2023-11-22T04:53:37;1.40;99.90
48264;DHT22;34086;51.076;13.722;2023-11-22T04:54:38;1.50;99.90
48264;DHT22;34086;51.076;13.722;2023-11-22T04:55:38;1.40;99.90
48264;DHT22;34086;51.076;13.722;2023-11-22T04:56:39;1.40;99.90
48264;DHT22;34086;51.076;13.722;2023-11-22T04:57:40;1.40;99.90
48264;DHT22;34086;51.076;13.722;2023-11-22T04:58:40;1.40;99.90
48264;DHT22;34086;51.076;13.722;2023-11-22T04:59:41;1.30;99.90
48264;DHT22;34086;51.076;13.722;2023-11-22T05:00:42;1.30;99.90
48264;DHT22;34086;51.076;13.722;2023-11-22T05:01:43;1.30;99.90
48264;DHT22;34086;51.076;13.722;2023-11-22T05:02:44;1.30;99.90
48264;DHT22;34086;51.076;13.722;2023-11-22T05:03:44;1.30;99.90
48264;DHT22;34086;51.076;13.722;2023-11-22T05:04:45;1.40;99.90
48264;DHT22;34086;51.076;13.722;2023-11-22T05:05:49;1.40;99.90
48264;DHT22;34086;51.076;13.722;2023-11-22T05:06:49;1.40;99.90
48264;DHT22;34086;51.076;13.722;2023-11-22T05:07:50;1.40;99.90
48264;DHT22;34086;51.076;13.722;2023-11-22T05:08:50;1.40;99.90
48264;DHT22;34086;51.076;13.722;2023-11-22T05:09:51;1.40;99.90
48264;DHT22;34086;51.076;13.722;2023-11-22T05:10:51;1.40;99.90
48264;DHT22;34086;51.076;13.722;2023-11-22T05:11:52;1.40;99.90
48264;DHT22;34086;51.076;13.722;2023-11-22T05:12:53;1.50;99.90
48264;DHT22;34086;51.076;13.722;2023-11-22T05:13:53;1.50;99.90
48264;DHT22;34086;51.076;13.722;2023-11-22T05:14:54;1.40;99.90
48264;DHT22;34086;51.076;13.722;2023-11-22T05:15:55;1.40;99.90
48264;DHT22;34086;51.076;13.722;2023-11-22T05:16:55;1.30;99.90
48264;DHT22;34086;51.076;13.722;2023-11-22T05:17:57;1.30;99.90
48264;DHT22;34086;51.076;13.722;2023-11-22T05:18:57;1.30;99.90
48264;DHT22;34086;51.076;13.722;2023-11-22T05:19:58;1.40;99.90
48264;DHT22;34086;51.076;13.722;2023-11-22T05:20:59;1.30;99.90
48264;DHT22;34086;51.076;13.722;2023-11-22T05:22:00;1.40;99.90
48264;DHT22;34086;51.076;13.722;2023-11-22T05:23:00;1.40;99.90
48264;DHT22;34086;51.076;13.722;2023-11-22T05:24:01;1.40;99.90
48264;DHT22;34086;51.076;13.722;2023-11-22T05:25:02;1.40;99.90
48264;DHT22;34086;51.076;13.722;2023-11-22T05:26:03;1.40;99.90
48264;DHT22;34086;51.076;13.722;2023-11-22T05:27:04;1.30;99.90
48264;DHT22;34086;51.076;13.722;2023-11-22T05:28:05;1.30;99.90
48264;DHT22;34086;51.076;13.722;2023-11-22T05:29:06;1.30;99.90
48264;DHT22;34086;51.076;13.722;2023-11-22T05:30:07;1.40;99.90
48264;DHT22;34086;51.076;13.722;2023-11-22T05:31:07;1.40;99.90
48264;DHT22;34086;51.076;13.722;2023-11-22T05:32:08;1.40;99.90
48264;DHT22;34086;51.076;13.722;2023-11-22T05:33:08;1.30;99.90
48264;DHT22;34086;51.076;13.722;2023-11-22T05:34:09;1.30;99.90
48264;DHT22;34086;51.076;13.722;2023-11-22T05:35:10;1.30;99.90
48264;DHT22;34086;51.076;13.722;2023-11-22T05:36:10;1.30;99.90
48264;DHT22;34086;51.076;13.722;2023-11-22T05:37:12;1.30;99.90
48264;DHT22;34086;51.076;13.722;2023-11-22T05:38:13;1.40;99.90
48264;DHT22;34086;51.076;13.722;2023-11-22T05:39:13;1.40;99.90
48264;DHT22;34086;51.076;13.722;2023-11-22T05:40:14;1.40;99.90
48264;DHT22;34086;51.076;13.722;2023-11-22T05:41:16;1.30;99.90
48264;DHT22;34086;51.076;13.722;2023-11-22T05:42:16;1.40;99.90
48264;DHT22;34086;51.076;13.722;2023-11-22T05:43:18;1.40;99.90
48264;DHT22;34086;51.076;13.722;2023-11-22T05:44:24;1.40;99.90
48264;DHT22;34086;51.076;13.722;2023-11-22T05:45:26;1.40;99.90
48264;DHT22;34086;51.076;13.722;2023-11-22T05:46:26;1.40;99.90
48264;DHT22;34086;51.076;13.722;2023-11-22T05:47:27;1.40;99.90
48264;DHT22;34086;51.076;13.722;2023-11-22T05:48:27;1.30;99.90
48264;DHT22;34086;51.076;13.722;2023-11-22T05:49:28;1.20;99.90
48264;DHT22;34086;51.076;13.722;2023-11-22T05:50:28;1.20;99.90
48264;DHT22;34086;51.076;13.722;2023-11-22T05:51:29;1.30;99.90
48264;DHT22;34086;51.076;13.722;2023-11-22T05:52:30;1.30;99.90
48264;DHT22;34086;51.076;13.722;2023-11-22T05:53:30;1.40;99.90
48264;DHT22;34086;51.076;13.722;2023-11-22T05:54:31;1.30;99.90
48264;DHT22;34086;51.076;13.722;2023-11-22T05:55:32;1.40;99.90
48264;DHT22;34086;51.076;13.722;2023-11-22T05:56:33;1.40;99.90
48264;DHT22;34086;51.076;13.722;2023-11-22T05:57:34;1.40;99.90
48264;DHT22;34086;51.076;13.722;2023-11-22T05:58:35;1.40;99.90
48264;DHT22;34086;51.076;13.722;2023-11-22T05:59:38;1.40;99.90
48264;DHT22;34086;51.076;13.722;2023-11-22T06:00:39;1.40;99.90
48264;DHT22;34086;51.076;13.722;2023-11-22T06:01:40;1.40;99.90
48264;DHT22;34086;51.076;13.722;2023-11-22T06:02:41;1.40;99.90
48264;DHT22;34086;51.076;13.722;2023-11-22T06:03:42;1.40;99.90
48264;DHT22;34086;51.076;13.722;2023-11-22T06:04:42;1.40;99.90
48264;DHT22;34086;51.076;13.722;2023-11-22T06:05:43;1.40;99.90
48264;DHT22;34086;51.076;13.722;2023-11-22T06:06:44;1.40;99.90
48264;DHT22;34086;51.076;13.722;2023-11-22T06:07:44;1.40;99.90
48264;DHT22;34086;51.076;13.722;2023-11-22T06:08:45;1.40;99.90
48264;DHT22;34086;51.076;13.722;2023-11-22T06:09:45;1.40;99.90
48264;DHT22;34086;51.076;13.722;2023-11-22T06:10:46;1.40;99.90
48264;DHT22;34086;51.076;13.722;2023-11-22T06:11:47;1.40;99.90
48264;DHT22;34086;51.076;13.722;2023-11-22T06:12:47;1.40;99.90
48264;DHT22;34086;51.076;13.722;2023-11-22T06:13:48;1.40;99.90
48264;DHT22;34086;51.076;13.722;2023-11-22T06:14:48;1.40;99.90
48264;DHT22;34086;51.076;13.722;2023-11-22T06:15:49;1.40;99.90
48264;DHT22;34086;51.076;13.722;2023-11-22T06:16:50;1.40;99.90
48264;DHT22;34086;51.076;13.722;2023-11-22T06:17:50;1.40;99.90
48264;DHT22;34086;51.076;13.722;2023-11-22T06:18:51;1.40;99.90
48264;DHT22;34086;51.076;13.722;2023-11-22T06:19:51;1.40;99.90
48264;DHT22;34086;51.076;13.722;2023-11-22T06:20:52;1.50;99.90
48264;DHT22;34086;51.076;13.722;2023-11-22T06:21:52;1.50;99.90
48264;DHT22;34086;51.076;13.722;2023-11-22T06:22:53;1.50;99.90
48264;DHT22;34086;51.076;13.722;2023-11-22T06:23:54;1.50;99.90
48264;DHT22;34086;51.076;13.722;2023-11-22T06:24:58;1.50;99.90